Time;durP1;ratioP1;P1;durP2;ratioP2;P2;SDS_P1;SDS_P2;PMS_P1;PMS_P2;Temp;Humidity;BMP_temperature;BMP_pressure;BME280_temperature;BME280_humidity;BME280_pressure;Samples;Min_cycle;Max_cycle;Signal;HPM_P1;HPM_P2
2020/12/14 00:01:15;;;;;;;27.13;16.77;;;;;;;0.72;88.40;100642.17;1847015;76;21216;-71
2020/12/14 00:03:44;;;;;;;23.00;14.95;;;;;;;0.72;88.41;100649.56;1831721;77;21042;-71
2020/12/14 00:06:14;;;;;;;22.05;13.75;;;;;;;0.72;88.36;100646.12;1827295;75;22231;-72
2020/12/14 00:08:42;;;;;;;21.65;14.00;;;;;;;0.72;88.33;100645.61;1830287;77;21565;-71
2020/12/14 00:11:13;;;;;;;18.92;13.70;;;;;;;0.70;88.32;100647.13;1838603;77;21173;-71
2020/12/14 00:13:41;;;;;;;27.20;18.02;;;;;;;0.69;88.35;100640.26;1842516;77;21498;-72
2020/12/14 00:16:09;;;;;;;20.90;14.78;;;;;;;0.71;88.32;100650.57;1830504;76;21149;-72
2020/12/14 00:18:38;;;;;;;19.77;13.05;;;;;;;0.72;88.32;100650.06;1832162;77;21161;-72
2020/12/14 00:21:06;;;;;;;21.15;13.30;;;;;;;0.68;88.24;100647.81;1855477;77;21126;-72
2020/12/14 00:23:34;;;;;;;20.15;12.82;;;;;;;0.67;88.25;100652.77;1841557;77;21122;-72
2020/12/14 00:26:02;;;;;;;24.02;15.93;;;;;;;0.64;88.28;100643.14;1832523;77;21106;-73
2020/12/14 00:28:30;;;;;;;25.48;15.45;;;;;;;0.62;88.28;100648.56;1804007;77;21173;-72
2020/12/14 00:30:58;;;;;;;23.92;14.00;;;;;;;0.59;88.29;100650.28;1835513;77;21563;-72
2020/12/14 00:33:26;;;;;;;21.77;14.23;;;;;;;0.60;88.25;100651.91;1827034;77;21160;-72
2020/12/14 00:35:54;;;;;;;26.42;17.55;;;;;;;0.62;88.29;100647.75;1841290;76;21154;-72
2020/12/14 00:38:23;;;;;;;28.92;18.25;;;;;;;0.61;88.28;100650.08;1855127;77;21509;-72
2020/12/14 00:40:51;;;;;;;23.07;14.33;;;;;;;0.62;88.32;100659.08;1849209;77;21360;-72
2020/12/14 00:43:19;;;;;;;23.98;15.15;;;;;;;0.65;88.34;100656.58;1846299;77;21374;-72
2020/12/14 00:45:47;;;;;;;25.70;16.15;;;;;;;0.65;88.30;100654.76;1833105;77;21193;-72
2020/12/14 00:48:15;;;;;;;27.65;16.75;;;;;;;0.67;88.27;100658.02;1853273;77;21031;-72
2020/12/14 00:50:43;;;;;;;24.35;15.58;;;;;;;0.68;88.27;100658.33;1852788;75;21137;-73
2020/12/14 00:53:11;;;;;;;22.73;14.65;;;;;;;0.67;88.27;100653.27;1847360;77;21050;-73
2020/12/14 00:55:39;;;;;;;22.87;15.05;;;;;;;0.64;88.24;100649.20;1854797;77;21357;-73
2020/12/14 00:58:07;;;;;;;24.50;15.30;;;;;;;0.66;88.23;100655.59;1833133;77;21117;-72
2020/12/14 01:00:38;;;;;;;26.48;16.30;;;;;;;0.66;88.23;100652.47;1838371;75;21085;-72
2020/12/14 01:03:06;;;;;;;17.77;11.83;;;;;;;0.64;88.22;100653.65;1823765;77;21148;-72
2020/12/14 01:05:34;;;;;;;23.87;15.28;;;;;;;0.63;88.28;100650.21;1832161;77;21534;-72
2020/12/14 01:08:02;;;;;;;19.05;11.90;;;;;;;0.64;88.25;100645.25;1831712;76;21762;-72
2020/12/14 01:10:32;;;;;;;23.25;14.25;;;;;;;0.64;88.25;100643.14;1832164;77;21126;-72
2020/12/14 01:13:00;;;;;;;21.85;14.78;;;;;;;0.62;88.23;100639.36;1826368;75;21094;-72
2020/12/14 01:15:28;;;;;;;23.22;14.63;;;;;;;0.59;88.26;100643.72;1811625;78;21131;-73
2020/12/14 01:17:55;;;;;;;26.23;15.30;;;;;;;0.56;88.27;100642.78;1823732;77;21121;-72
2020/12/14 01:20:23;;;;;;;20.40;13.93;;;;;;;0.57;88.27;100648.84;1818645;76;21356;-72
2020/12/14 01:22:51;;;;;;;23.55;14.05;;;;;;;0.58;88.27;100648.64;1833615;76;21111;-72
2020/12/14 01:25:20;;;;;;;24.27;16.73;;;;;;;0.58;88.27;100647.83;1827004;78;21095;-72
2020/12/14 01:27:48;;;;;;;27.15;16.35;;;;;;;0.56;88.32;100650.66;1809410;78;21134;-72
2020/12/14 01:30:16;;;;;;;21.90;14.13;;;;;;;0.57;88.33;100648.34;1818301;76;21050;-71
2020/12/14 01:32:44;;;;;;;24.63;15.38;;;;;;;0.55;88.32;100642.95;1831676;76;21375;-71
2020/12/14 01:35:11;;;;;;;22.80;14.10;;;;;;;0.55;88.34;100650.33;1820474;78;21217;-71
2020/12/14 01:37:40;;;;;;;26.45;15.23;;;;;;;0.53;88.38;100648.41;1807836;78;21115;-71
2020/12/14 01:40:10;;;;;;;26.35;15.70;;;;;;;0.53;88.42;100649.72;1811668;77;21541;-71
2020/12/14 01:42:44;;;;;;;24.12;14.38;;;;;;;0.56;88.45;100641.46;1821370;76;21131;-72
2020/12/14 01:45:12;;;;;;;24.87;14.85;;;;;;;0.59;88.40;100650.28;1812438;77;21359;-71
2020/12/14 01:47:44;;;;;;;24.05;16.05;;;;;;;0.57;88.37;100641.77;1803634;79;21079;-72
2020/12/14 01:50:13;;;;;;;23.92;15.32;;;;;;;0.60;88.41;100642.70;1813299;77;21058;-73
2020/12/14 01:52:46;;;;;;;24.50;14.30;;;;;;;0.63;88.40;100643.64;1813460;78;21550;-72
2020/12/14 01:55:18;;;;;;;28.57;16.87;;;;;;;0.62;88.41;100638.05;1823904;78;21035;-72
2020/12/14 01:57:46;;;;;;;22.87;14.15;;;;;;;0.63;88.38;100637.06;1813039;78;21805;-72
2020/12/14 02:00:14;;;;;;;27.80;17.48;;;;;;;0.64;88.32;100639.19;1835866;78;21047;-72
2020/12/14 02:02:42;;;;;;;25.72;16.77;;;;;;;0.60;88.34;100634.81;1819144;76;21178;-72
2020/12/14 02:05:10;;;;;;;22.80;13.72;;;;;;;0.62;88.38;100641.99;1823570;78;21190;-72
2020/12/14 02:07:38;;;;;;;22.65;13.15;;;;;;;0.60;88.32;100640.58;1835084;77;21185;-73
2020/12/14 02:10:06;;;;;;;23.40;14.30;;;;;;;0.53;88.29;100637.89;1828230;77;22376;-72
2020/12/14 02:12:34;;;;;;;25.65;16.15;;;;;;;0.50;88.31;100640.90;1813492;76;21232;-72
2020/12/14 02:15:03;;;;;;;23.02;15.03;;;;;;;0.46;88.35;100642.25;1813495;78;21169;-72
2020/12/14 02:17:31;;;;;;;24.18;14.35;;;;;;;0.46;88.42;100644.41;1816554;76;21142;-72
2020/12/14 02:19:59;;;;;;;21.70;13.93;;;;;;;0.47;88.40;100639.95;1826061;77;21111;-72
2020/12/14 02:22:27;;;;;;;22.48;13.60;;;;;;;0.51;88.41;100645.14;1821654;77;21193;-73
2020/12/14 02:25:00;;;;;;;23.90;14.28;;;;;;;0.49;88.37;100644.50;1827608;77;21474;-72
2020/12/14 02:27:29;;;;;;;23.38;13.98;;;;;;;0.47;88.44;100638.64;1806834;78;21146;-72
2020/12/14 02:29:57;;;;;;;23.90;14.53;;;;;;;0.44;88.45;100642.45;1829919;77;21202;-72
2020/12/14 02:32:26;;;;;;;22.30;14.00;;;;;;;0.45;88.48;100638.81;1817671;77;21063;-72
2020/12/14 02:34:54;;;;;;;19.42;12.73;;;;;;;0.46;88.47;100635.69;1819049;77;21379;-72
2020/12/14 02:37:25;;;;;;;24.45;15.72;;;;;;;0.48;88.47;100636.31;1812976;76;21768;-72
2020/12/14 02:39:53;;;;;;;21.42;13.35;;;;;;;0.47;88.46;100637.33;1804852;78;21036;-72
2020/12/14 02:42:23;;;;;;;23.70;15.15;;;;;;;0.48;88.50;100638.95;1830522;77;21156;-72
2020/12/14 02:44:51;;;;;;;22.05;13.83;;;;;;;0.49;88.49;100638.44;1805508;77;21099;-72
2020/12/14 02:47:19;;;;;;;23.27;14.90;;;;;;;0.53;88.49;100638.38;1827336;77;21198;-72
2020/12/14 02:49:47;;;;;;;25.02;15.93;;;;;;;0.55;88.49;100641.13;1848025;76;21144;-72
2020/12/14 02:52:15;;;;;;;23.62;14.33;;;;;;;0.58;88.49;100642.57;1803225;78;21055;-73
2020/12/14 02:54:44;;;;;;;18.27;11.88;;;;;;;0.57;88.46;100640.95;1833550;77;21130;-71
2020/12/14 02:57:12;;;;;;;19.95;13.20;;;;;;;0.59;88.46;100647.66;1844297;75;21168;-72
2020/12/14 02:59:40;;;;;;;20.50;13.48;;;;;;;0.57;88.39;100643.08;1841379;77;22371;-72
2020/12/14 03:02:08;;;;;;;21.73;14.18;;;;;;;0.61;88.38;100642.20;1792176;78;21142;-72
2020/12/14 03:04:36;;;;;;;15.38;10.95;;;;;;;0.60;88.37;100641.89;1845211;75;21124;-72
2020/12/14 03:07:04;;;;;;;19.62;12.20;;;;;;;0.59;88.38;100637.62;1806007;78;21103;-72
2020/12/14 03:09:32;;;;;;;18.25;11.28;;;;;;;0.56;88.37;100637.52;1832627;76;21187;-72
2020/12/14 03:12:02;;;;;;;17.70;11.05;;;;;;;0.58;88.37;100638.62;1802459;78;22539;-72
2020/12/14 03:14:35;;;;;;;20.27;13.43;;;;;;;0.57;88.33;100635.19;1821738;77;21608;-71
2020/12/14 03:17:03;;;;;;;17.20;11.90;;;;;;;0.59;88.35;100638.93;1798120;77;21151;-72
2020/12/14 03:19:31;;;;;;;18.95;12.35;;;;;;;0.57;88.34;100635.19;1800364;78;21124;-71
2020/12/14 03:21:59;;;;;;;17.65;12.00;;;;;;;0.58;88.32;100635.50;1827290;75;21105;-71
2020/12/14 03:24:29;;;;;;;17.85;12.55;;;;;;;0.58;88.29;100640.75;1840307;77;21756;-71
2020/12/14 03:26:59;;;;;;;19.20;13.60;;;;;;;0.59;88.27;100644.19;1833562;77;21225;-73
2020/12/14 03:29:28;;;;;;;18.50;12.58;;;;;;;0.57;88.26;100643.08;1804237;77;21099;-72
2020/12/14 03:31:56;;;;;;;17.25;11.25;;;;;;;0.56;88.29;100638.83;1815426;77;21063;-73
2020/12/14 03:34:24;;;;;;;16.27;11.73;;;;;;;0.56;88.26;100643.25;1827819;77;21033;-72
2020/12/14 03:36:52;;;;;;;16.75;11.05;;;;;;;0.55;88.22;100637.69;1842797;77;22264;-73
2020/12/14 03:39:19;;;;;;;19.02;12.35;;;;;;;0.53;88.23;100637.89;1838821;77;21113;-72
2020/12/14 03:41:50;;;;;;;19.67;12.82;;;;;;;0.52;88.22;100647.27;1780630;78;21148;-72
2020/12/14 03:44:19;;;;;;;19.50;12.20;;;;;;;0.52;88.24;100653.84;1802299;77;21105;-72
2020/12/14 03:46:47;;;;;;;17.02;11.68;;;;;;;0.52;88.24;100650.70;1810256;77;21271;-72
2020/12/14 03:49:15;;;;;;;17.05;11.90;;;;;;;0.52;88.21;100642.02;1817617;76;21193;-72
2020/12/14 03:51:43;;;;;;;18.82;11.53;;;;;;;0.51;88.20;100645.65;1805539;76;21115;-72
2020/12/14 03:54:11;;;;;;;15.93;10.78;;;;;;;0.51;88.24;100649.59;1832227;78;21091;-72
2020/12/14 03:56:39;;;;;;;16.97;11.35;;;;;;;0.51;88.27;100650.40;1814594;77;21673;-73
2020/12/14 03:59:08;;;;;;;15.90;11.28;;;;;;;0.52;88.26;100653.33;1817665;78;21173;-72
2020/12/14 04:01:36;;;;;;;16.50;10.68;;;;;;;0.58;88.27;100654.40;1801888;76;21350;-73
2020/12/14 04:04:04;;;;;;;18.23;11.70;;;;;;;0.61;88.22;100650.08;1810883;76;21559;-72
2020/12/14 04:06:32;;;;;;;14.38;9.98;;;;;;;0.63;88.21;100653.34;1817663;77;21096;-73
2020/12/14 04:09:00;;;;;;;15.68;9.98;;;;;;;0.63;88.16;100651.52;1812013;77;21079;-73
2020/12/14 04:11:31;;;;;;;15.98;10.82;;;;;;;0.64;88.17;100654.45;1824808;77;21533;-73
2020/12/14 04:13:59;;;;;;;15.03;9.90;;;;;;;0.66;88.15;100653.78;1814652;78;21431;-73
2020/12/14 04:16:27;;;;;;;17.07;12.10;;;;;;;0.69;88.13;100652.56;1825463;78;21174;-72
2020/12/14 04:18:55;;;;;;;17.00;11.15;;;;;;;0.67;88.10;100655.39;1817210;76;21158;-72
2020/12/14 04:21:24;;;;;;;16.95;11.80;;;;;;;0.65;88.06;100656.07;1814466;76;21524;-72
2020/12/14 04:23:52;;;;;;;15.60;10.08;;;;;;;0.65;88.07;100657.89;1806755;76;21051;-72
2020/12/14 04:26:21;;;;;;;14.65;9.88;;;;;;;0.64;88.01;100655.77;1810836;76;21366;-71
2020/12/14 04:28:50;;;;;;;14.15;9.95;;;;;;;0.63;87.95;100660.72;1810189;77;21527;-72
2020/12/14 04:31:18;;;;;;;14.85;10.35;;;;;;;0.63;87.96;100653.34;1795735;77;21137;-71
2020/12/14 04:33:46;;;;;;;14.23;8.90;;;;;;;0.59;87.95;100658.17;1818398;77;21068;-72
2020/12/14 04:36:14;;;;;;;15.68;10.05;;;;;;;0.55;87.93;100654.27;1797020;78;21600;-72
2020/12/14 04:38:42;;;;;;;14.50;9.88;;;;;;;0.54;87.95;100657.91;1799210;78;21806;-72
2020/12/14 04:41:10;;;;;;;15.43;9.58;;;;;;;0.55;87.95;100657.41;1833665;76;21090;-72
2020/12/14 04:43:38;;;;;;;14.10;9.75;;;;;;;0.52;87.94;100658.58;1849683;76;21133;-71
2020/12/14 04:46:06;;;;;;;15.60;9.75;;;;;;;0.51;87.94;100662.22;1803036;77;21120;-71
2020/12/14 04:48:34;;;;;;;14.60;10.30;;;;;;;0.49;87.94;100670.78;1804770;77;21163;-71
2020/12/14 04:51:02;;;;;;;14.93;9.70;;;;;;;0.52;87.98;100674.86;1803063;77;21571;-72
2020/12/14 04:53:30;;;;;;;14.00;9.78;;;;;;;0.57;87.96;100673.81;1833299;75;21124;-72
2020/12/14 04:55:58;;;;;;;16.35;10.50;;;;;;;0.61;87.98;100671.92;1778954;78;21109;-71
2020/12/14 04:58:26;;;;;;;14.25;9.75;;;;;;;0.59;87.90;100673.94;1781783;77;21282;-71
2020/12/14 05:00:54;;;;;;;18.25;11.63;;;;;;;0.58;87.93;100682.00;1809743;77;21206;-72
2020/12/14 05:03:22;;;;;;;16.05;10.75;;;;;;;0.55;87.93;100689.75;1837344;76;21646;-72
2020/12/14 05:05:56;;;;;;;14.47;8.95;;;;;;;0.58;87.91;100698.58;1835878;75;21112;-72
2020/12/14 05:08:27;;;;;;;12.45;7.95;;;;;;;0.56;87.91;100692.71;1839106;75;21131;-72
2020/12/14 05:10:56;;;;;;;17.17;12.05;;;;;;;0.56;87.90;100697.97;1837762;75;21140;-72
2020/12/14 05:13:27;;;;;;;16.32;10.65;;;;;;;0.58;87.93;100693.83;1841634;76;21036;-73
2020/12/14 05:15:55;;;;;;;14.00;9.45;;;;;;;0.59;87.90;100704.17;1832301;75;21366;-73
2020/12/14 05:18:24;;;;;;;16.95;11.75;;;;;;;0.60;87.86;100702.34;1844929;77;21532;-73
2020/12/14 05:21:05;;;;;;;16.97;12.13;;;;;;;0.57;87.86;100704.84;1853894;77;21183;-72
2020/12/14 05:23:34;;;;;;;15.95;10.50;;;;;;;0.56;87.83;100708.48;1810553;78;21192;-72
2020/12/14 05:26:06;;;;;;;16.82;10.18;;;;;;;0.55;87.83;100708.66;1841516;75;21124;-71
2020/12/14 05:28:35;;;;;;;15.85;10.72;;;;;;;0.53;87.85;100708.85;1830833;75;21353;-72
2020/12/14 05:31:03;;;;;;;15.53;10.75;;;;;;;0.52;87.80;100707.20;1851796;77;21485;-72
2020/12/14 05:33:32;;;;;;;16.25;10.95;;;;;;;0.50;87.82;100714.98;1832703;76;21582;-72
2020/12/14 05:36:00;;;;;;;14.45;10.68;;;;;;;0.51;87.84;100712.16;1848661;77;21121;-72
2020/12/14 05:38:30;;;;;;;15.05;10.95;;;;;;;0.53;87.87;100720.68;1796079;78;21079;-72
2020/12/14 05:41:02;;;;;;;13.18;8.70;;;;;;;0.54;87.84;100716.23;1824739;78;22292;-74
2020/12/14 05:43:32;;;;;;;16.07;11.10;;;;;;;0.55;87.83;100714.72;1839330;77;25379;-72
2020/12/14 05:46:15;;;;;;;14.95;10.68;;;;;;;0.58;87.81;100720.92;1813803;78;21131;-72
2020/12/14 05:48:43;;;;;;;14.87;10.48;;;;;;;0.56;87.81;100721.63;1818848;78;22095;-72
2020/12/14 05:51:13;;;;;;;16.62;11.73;;;;;;;0.55;87.82;100719.98;1824245;78;21559;-72
2020/12/14 05:53:53;;;;;;;16.17;11.22;;;;;;;0.54;87.80;100724.92;1857715;75;21533;-72
2020/12/14 05:56:21;;;;;;;15.43;10.80;;;;;;;0.55;87.80;100726.55;1838050;77;21690;-72
2020/12/14 05:58:52;;;;;;;16.48;12.05;;;;;;;0.59;87.82;100730.45;1842439;77;21613;-72
2020/12/14 06:01:20;;;;;;;16.30;11.43;;;;;;;0.62;87.83;100739.25;1843341;77;21118;-72
2020/12/14 06:03:48;;;;;;;16.40;11.18;;;;;;;0.64;87.84;100739.89;1841440;75;21290;-72
2020/12/14 06:06:16;;;;;;;16.40;11.05;;;;;;;0.65;87.76;100740.70;1835696;77;21776;-72
2020/12/14 06:08:55;;;;;;;16.93;11.48;;;;;;;0.62;87.71;100737.12;1841026;76;21132;-72
2020/12/14 06:11:26;;;;;;;18.07;13.15;;;;;;;0.63;87.71;100738.27;1834952;75;21528;-72
2020/12/14 06:13:58;;;;;;;16.05;11.20;;;;;;;0.62;87.68;100739.75;1840281;77;21261;-71
2020/12/14 06:16:29;;;;;;;15.10;10.38;;;;;;;0.62;87.70;100742.38;1824357;77;21147;-72
2020/12/14 06:18:58;;;;;;;17.77;12.50;;;;;;;0.57;87.68;100749.53;1826026;77;21364;-72
2020/12/14 06:21:37;;;;;;;15.93;11.57;;;;;;;0.58;87.72;100758.22;1847451;76;21124;-72
2020/12/14 06:24:06;;;;;;;15.28;10.80;;;;;;;0.61;87.70;100752.09;1856586;77;21131;-72
2020/12/14 06:26:35;;;;;;;20.08;12.40;;;;;;;0.64;87.70;100766.17;1810324;77;21100;-71
2020/12/14 06:29:05;;;;;;;16.52;11.38;;;;;;;0.62;87.68;100766.04;1786841;78;21574;-72
2020/12/14 06:31:40;;;;;;;19.35;12.45;;;;;;;0.66;87.70;100768.63;1817759;77;22135;-71
2020/12/14 06:34:35;;;;;;;19.82;13.35;;;;;;;0.67;87.68;100763.68;1809585;78;21717;-71
2020/12/14 06:37:04;;;;;;;16.95;12.45;;;;;;;0.69;87.65;100770.86;1779563;78;21110;-72
2020/12/14 06:42:18;;;;;;;16.60;12.13;;;;;;;0.77;87.63;100769.95;1780893;79;22625;-72
2020/12/14 06:44:55;;;;;;;18.10;12.28;;;;;;;0.72;87.60;100769.68;1786134;78;21172;-72
2020/12/14 06:47:23;;;;;;;17.70;12.50;;;;;;;0.74;87.61;100763.75;1807804;79;21394;-72
2020/12/14 06:49:51;;;;;;;17.37;12.45;;;;;;;0.75;87.59;100765.36;1772817;79;20951;-71
2020/12/14 06:52:35;;;;;;;17.23;11.95;;;;;;;0.78;87.56;100757.91;1779639;79;21561;-70
2020/12/14 06:55:03;;;;;;;18.00;12.75;;;;;;;0.82;87.56;100766.23;1777421;80;21066;-72
2020/12/14 06:57:37;;;;;;;16.75;12.03;;;;;;;0.80;87.56;100755.11;1782649;79;21104;-71
2020/12/14 07:00:07;;;;;;;17.12;11.73;;;;;;;0.79;87.54;100758.72;1766456;80;21374;-71
2020/12/14 07:02:46;;;;;;;19.47;13.20;;;;;;;0.84;87.52;100747.16;1830584;77;22788;-72
2020/12/14 07:05:33;;;;;;;19.45;13.48;;;;;;;0.78;87.51;100753.16;1800715;77;21148;-73
2020/12/14 07:08:03;;;;;;;20.50;13.90;;;;;;;0.76;87.54;100754.67;1796883;77;21380;-72
2020/12/14 07:10:32;;;;;;;17.95;12.75;;;;;;;0.77;87.55;100755.48;1792902;79;21166;-71
2020/12/14 07:13:00;;;;;;;18.15;12.85;;;;;;;0.78;87.58;100759.23;1807008;77;21634;-72
2020/12/14 07:15:32;;;;;;;16.42;11.95;;;;;;;0.81;87.59;100758.05;1807613;79;21150;-71
2020/12/14 07:18:05;;;;;;;21.33;14.65;;;;;;;0.85;87.58;100759.30;1816219;78;21195;-72
2020/12/14 07:20:33;;;;;;;15.95;10.78;;;;;;;0.88;87.57;100750.52;1809058;79;22283;-71
2020/12/14 07:23:07;;;;;;;17.30;11.68;;;;;;;0.93;87.56;100753.41;1786481;79;21162;-71
2020/12/14 07:25:35;;;;;;;16.62;11.75;;;;;;;0.98;87.52;100749.40;1797946;79;21171;-71
2020/12/14 07:28:03;;;;;;;14.55;9.98;;;;;;;1.02;87.44;100754.58;1795625;78;21155;-71
2020/12/14 07:30:31;;;;;;;17.87;12.55;;;;;;;1.09;87.41;100758.11;1790335;77;21174;-71
2020/12/14 07:32:59;;;;;;;18.25;12.65;;;;;;;1.09;87.37;100761.55;1800384;79;21376;-71
2020/12/14 07:35:29;;;;;;;17.12;11.43;;;;;;;1.08;87.29;100769.11;1800240;79;21564;-72
2020/12/14 07:37:57;;;;;;;14.60;10.38;;;;;;;1.10;87.26;100766.30;1817154;79;21170;-71
2020/12/14 07:40:25;;;;;;;15.53;10.88;;;;;;;1.11;87.22;100771.36;1816147;79;21068;-71
2020/12/14 07:42:55;;;;;;;15.15;11.33;;;;;;;1.11;87.08;100783.70;1796794;79;21571;-71
2020/12/14 07:45:25;;;;;;;18.20;12.07;;;;;;;1.07;87.03;100785.09;1814618;79;21647;-71
2020/12/14 07:47:54;;;;;;;14.05;10.48;;;;;;;1.03;86.97;100788.61;1814814;79;21563;-71
2020/12/14 07:50:24;;;;;;;14.83;10.45;;;;;;;1.01;86.91;100792.42;1809577;79;21606;-71
2020/12/14 07:52:55;;;;;;;18.32;12.82;;;;;;;0.99;86.86;100792.63;1801083;77;21142;-71
2020/12/14 07:55:29;;;;;;;15.15;11.15;;;;;;;0.99;86.85;100800.52;1816519;79;21483;-72
2020/12/14 07:57:57;;;;;;;15.83;11.43;;;;;;;1.00;86.84;100796.87;1808822;79;21288;-72
2020/12/14 08:00:26;;;;;;;13.25;10.10;;;;;;;1.01;86.78;100802.94;1814321;79;21148;-71
2020/12/14 08:03:05;;;;;;;13.93;10.03;;;;;;;1.01;86.75;100812.95;1804641;79;21154;-72
2020/12/14 08:05:33;;;;;;;15.35;10.93;;;;;;;1.03;86.71;100812.78;1794385;79;21587;-71
2020/12/14 08:08:05;;;;;;;15.72;11.00;;;;;;;1.03;86.66;100812.78;1791102;79;21546;-71
2020/12/14 08:10:34;;;;;;;;;;;;;;;1.00;86.62;100807.90;1794169;79;21366;-71
2020/12/14 08:13:10;;;;;;;15.68;10.82;;;;;;;0.98;86.62;100811.20;1803366;77;20212;-71
2020/12/14 08:15:41;;;;;;;13.05;9.73;;;;;;;0.94;86.62;100803.69;1811170;78;21132;-71
2020/12/14 08:18:11;;;;;;;15.48;11.33;;;;;;;0.97;86.63;100797.25;1809920;79;21629;-71
2020/12/14 08:20:41;;;;;;;15.40;11.12;;;;;;;1.00;86.63;100786.35;1805953;79;21171;-71
2020/12/14 08:23:19;;;;;;;15.13;10.50;;;;;;;1.08;86.60;100788.03;1786316;79;21192;-71
2020/12/14 08:25:49;;;;;;;17.17;11.78;;;;;;;1.11;86.50;100788.97;1790822;79;21147;-70
2020/12/14 08:28:29;;;;;;;16.85;11.68;;;;;;;1.13;86.43;100785.16;1813366;79;21108;-71
2020/12/14 08:30:57;;;;;;;16.00;11.45;;;;;;;1.17;86.31;100785.08;1801577;77;21088;-71
2020/12/14 08:33:25;;;;;;;16.42;11.48;;;;;;;1.21;86.24;100778.94;1804856;79;21558;-71
2020/12/14 08:35:54;;;;;;;15.03;11.03;;;;;;;1.27;86.25;100782.13;1795345;78;21186;-71
2020/12/14 08:38:24;;;;;;;16.32;11.43;;;;;;;1.31;86.19;100779.42;1801626;79;21119;-71
2020/12/14 08:41:03;;;;;;;15.30;10.82;;;;;;;1.34;86.13;100775.59;1799699;79;21111;-70
2020/12/14 08:43:35;;;;;;;12.75;9.73;;;;;;;1.37;86.01;100778.66;1804042;77;21678;-71
2020/12/14 08:46:15;;;;;;;15.32;10.82;;;;;;;1.39;85.88;100769.27;1796866;77;21155;-72
2020/12/14 08:48:53;;;;;;;13.68;9.95;;;;;;;1.39;85.77;100772.72;1801275;77;21197;-70
2020/12/14 08:51:31;;;;;;;15.13;10.82;;;;;;;1.38;85.65;100772.89;1802608;79;21147;-71
2020/12/14 08:54:22;;;;;;;13.55;9.63;;;;;;;1.37;85.62;100772.59;1794311;79;21174;-70
2020/12/14 08:56:50;;;;;;;13.95;10.00;;;;;;;1.38;85.50;100776.84;1801759;77;21167;-70
2020/12/14 08:59:18;;;;;;;13.68;10.38;;;;;;;1.38;85.44;100780.78;1795602;79;21164;-71
2020/12/14 09:02:04;;;;;;;16.30;11.63;;;;;;;1.43;85.42;100782.86;1808357;77;22038;-71
2020/12/14 09:04:37;;;;;;;14.25;10.45;;;;;;;1.47;85.40;100782.28;1808509;77;21192;-70
2020/12/14 09:07:06;;;;;;;14.58;10.28;;;;;;;1.47;85.25;100782.28;1806497;79;21068;-71
2020/12/14 09:09:37;;;;;;;13.32;10.15;;;;;;;1.45;85.11;100782.98;1804983;77;21135;-71
2020/12/14 09:12:13;;;;;;;15.25;9.85;;;;;;;1.47;85.09;100785.41;1800658;79;21524;-70
2020/12/14 09:14:40;;;;;;;16.25;12.10;;;;;;;1.47;85.08;100783.59;1814296;79;22074;-71
2020/12/14 09:17:16;;;;;;;12.13;9.38;;;;;;;1.47;85.11;100778.33;1801340;79;21087;-70
2020/12/14 09:19:51;;;;;;;14.93;10.75;;;;;;;1.52;85.02;100777.27;1798448;79;21146;-70
2020/12/14 09:22:22;;;;;;;14.23;10.25;;;;;;;1.47;84.93;100771.75;1803204;79;21175;-71
2020/12/14 09:24:52;;;;;;;16.67;11.18;;;;;;;1.49;84.91;100767.12;1785325;79;21115;-71
2020/12/14 09:27:20;;;;;;;15.65;10.58;;;;;;;1.49;84.92;100766.31;1793063;79;21329;-71
2020/12/14 09:29:48;;;;;;;17.20;11.88;;;;;;;1.47;84.89;100763.05;1796074;78;21171;-71
2020/12/14 09:32:16;;;;;;;13.53;9.78;;;;;;;1.50;84.87;100766.61;1789594;79;21107;-70
2020/12/14 09:34:44;;;;;;;15.25;10.93;;;;;;;1.51;84.87;100762.97;1754794;80;21707;-69
2020/12/14 09:37:12;;;;;;;14.80;10.93;;;;;;;1.49;84.78;100768.44;1799894;77;21163;-69
2020/12/14 09:39:41;;;;;;;16.17;12.15;;;;;;;1.48;84.78;100767.30;1793260;77;21194;-71
2020/12/14 09:42:09;;;;;;;17.17;12.50;;;;;;;1.48;84.78;100767.30;1791568;79;21583;-71
2020/12/14 09:44:37;;;;;;;14.18;10.50;;;;;;;1.51;84.82;100771.67;1801976;79;21623;-71
2020/12/14 09:47:06;;;;;;;16.25;11.05;;;;;;;1.52;84.76;100769.88;1810011;79;21187;-70
2020/12/14 09:49:34;;;;;;;14.80;10.53;;;;;;;1.50;84.69;100775.31;1812175;79;21576;-70
2020/12/14 09:52:02;;;;;;;13.93;9.75;;;;;;;1.54;84.70;100779.19;1792477;78;21820;-71
2020/12/14 09:54:30;;;;;;;13.70;9.58;;;;;;;1.54;84.63;100783.13;1806410;79;21195;-71
2020/12/14 09:56:58;;;;;;;14.63;10.78;;;;;;;1.51;84.53;100778.25;1806169;77;21167;-71
2020/12/14 09:59:26;;;;;;;15.20;10.78;;;;;;;1.48;84.48;100781.30;1793030;79;21171;-71
2020/12/14 10:01:53;;;;;;;15.80;11.43;;;;;;;1.45;84.49;100776.89;1788199;79;21167;-71
2020/12/14 10:04:22;;;;;;;12.73;9.55;;;;;;;1.43;84.48;100782.86;1793060;77;21353;-71
2020/12/14 10:19:54;;;;;;;11.13;8.93;;;;;;;2.20;83.75;100781.89;1816974;77;22840;-70
2020/12/14 10:22:22;;;;;;;14.25;10.20;;;;;;;2.16;83.54;100788.06;1789969;79;21164;-70
2020/12/14 10:25:01;;;;;;;16.73;11.43;;;;;;;2.16;83.48;100780.66;1826570;77;23294;-70
2020/12/14 10:27:29;;;;;;;14.65;10.53;;;;;;;2.05;83.31;100778.09;1807812;78;21085;-71
2020/12/14 10:29:56;;;;;;;13.65;9.48;;;;;;;2.03;83.26;100779.58;1821052;78;22339;-71
2020/12/14 10:32:24;;;;;;;14.45;10.35;;;;;;;1.97;83.08;100775.59;1854291;76;21545;-71
2020/12/14 10:34:53;;;;;;;13.58;9.10;;;;;;;1.87;82.93;100777.27;1846206;75;21180;-70
2020/12/14 10:37:21;;;;;;;12.65;8.15;;;;;;;1.81;82.87;100774.09;1817413;78;21173;-71
2020/12/14 10:39:48;;;;;;;15.40;10.32;;;;;;;1.80;82.85;100779.05;1798288;79;21183;-70
2020/12/14 10:42:17;;;;;;;14.40;10.75;;;;;;;1.79;82.81;100782.20;1814719;78;21383;-70
2020/12/14 10:44:45;;;;;;;15.80;11.30;;;;;;;1.77;82.78;100778.93;1817086;76;21157;-70
2020/12/14 10:47:13;;;;;;;16.37;11.40;;;;;;;1.78;82.74;100771.36;1819183;78;21100;-71
2020/12/14 10:49:41;;;;;;;16.52;10.68;;;;;;;1.76;82.69;100774.68;1825351;78;21159;-70
2020/12/14 10:52:10;;;;;;;14.73;10.38;;;;;;;1.77;82.68;100776.80;1816319;77;21104;-71
2020/12/14 10:54:40;;;;;;;17.75;11.75;;;;;;;1.79;82.64;100777.44;1812218;78;21144;-71
2020/12/14 10:57:08;;;;;;;18.23;13.65;;;;;;;1.85;82.68;100780.11;1814342;78;21634;-70
2020/12/14 11:01:50;;;;;;;17.57;12.00;;;;;;;1.94;82.51;100786.05;1633057;79;10000051;-72
2020/12/14 11:04:19;;;;;;;16.05;11.45;;;;;;;1.92;82.46;100781.97;1721740;82;22182;-73
2020/12/14 11:06:47;;;;;;;15.98;10.88;;;;;;;1.87;82.30;100784.66;1706865;82;21264;-72
2020/12/14 11:09:16;;;;;;;19.25;12.73;;;;;;;1.80;82.22;100789.59;1696513;82;21178;-72
2020/12/14 11:11:44;;;;;;;19.48;13.75;;;;;;;1.76;82.20;100785.22;1685956;83;21518;-73
2020/12/14 11:14:12;;;;;;;18.12;12.80;;;;;;;1.71;82.20;100786.79;1650836;86;21089;-73
2020/12/14 11:16:42;;;;;;;18.35;12.73;;;;;;;1.65;82.24;100785.77;1677888;83;21829;-73
2020/12/14 11:19:10;;;;;;;17.05;11.65;;;;;;;1.59;82.36;100787.34;1667707;83;21128;-71
2020/12/14 11:21:38;;;;;;;17.98;11.38;;;;;;;1.54;82.51;100787.59;1673334;83;21196;-72
2020/12/14 11:24:07;;;;;;;16.87;11.30;;;;;;;1.50;82.62;100781.89;1679245;83;21176;-72
2020/12/14 11:26:35;;;;;;;17.87;12.13;;;;;;;1.51;82.72;100786.14;1666478;83;21248;-72
2020/12/14 11:29:03;;;;;;;18.12;12.75;;;;;;;1.54;82.78;100783.64;1674471;83;21219;-71
2020/12/14 11:31:31;;;;;;;18.45;12.58;;;;;;;1.53;82.77;100780.20;1674456;83;21248;-72
2020/12/14 11:33:59;;;;;;;20.23;13.75;;;;;;;1.53;82.80;100776.76;1676692;83;21195;-72
2020/12/14 11:36:28;;;;;;;18.82;12.25;;;;;;;1.52;82.81;100780.41;1668513;83;21257;-73
2020/12/14 11:38:57;;;;;;;15.58;10.88;;;;;;;1.55;82.87;100782.15;1677348;85;21247;-72
2020/12/14 11:41:26;;;;;;;17.42;11.88;;;;;;;1.58;82.95;100784.88;1677881;83;21376;-72
2020/12/14 11:43:55;;;;;;;15.65;11.22;;;;;;;1.62;83.07;100781.69;1675406;83;21167;-73
2020/12/14 11:46:23;;;;;;;18.10;12.00;;;;;;;1.68;83.10;100785.38;1668648;83;21173;-73
2020/12/14 11:48:51;;;;;;;16.80;12.05;;;;;;;1.73;83.06;100786.91;1679659;83;21172;-74